createdAt,value
2019-05-15T00:00:08.998Z,59.90
2019-05-15T00:02:38.815Z,59.90
2019-05-15T00:05:09.226Z,60.00
2019-05-15T00:07:39.141Z,60.30
2019-05-15T00:10:08.891Z,60.20
2019-05-15T00:12:39.453Z,60.30
2019-05-15T00:15:09.395Z,60.70
2019-05-15T00:17:39.355Z,60.40
2019-05-15T00:20:09.940Z,60.90
2019-05-15T00:22:39.084Z,60.90
2019-05-15T00:25:09.240Z,61.00
2019-05-15T00:27:38.838Z,60.80
2019-05-15T00:30:09.186Z,61.70
2019-05-15T00:32:39.303Z,60.90
2019-05-15T00:35:09.383Z,61.10
2019-05-15T00:37:38.845Z,61.20
2019-05-15T00:40:08.744Z,61.50
2019-05-15T00:42:38.396Z,61.90
2019-05-15T00:45:09.376Z,61.80
2019-05-15T00:47:39.613Z,62.50
2019-05-15T00:50:10.550Z,62.50
2019-05-15T00:52:39.820Z,62.80
2019-05-15T00:55:09.019Z,63.40
2019-05-15T00:57:39.338Z,63.80
2019-05-15T01:00:09.315Z,64.20
2019-05-15T01:02:38.877Z,64.30
2019-05-15T01:05:08.255Z,64.40
2019-05-15T01:07:38.926Z,64.60
2019-05-15T01:10:09.820Z,64.20
2019-05-15T01:12:38.164Z,64.60
2019-05-15T01:15:09.231Z,63.70
2019-05-15T01:17:39.227Z,63.80
2019-05-15T01:20:08.777Z,64.00
2019-05-15T01:22:39.289Z,63.90
2019-05-15T01:25:08.703Z,64.40
2019-05-15T01:27:38.734Z,64.80
2019-05-15T01:30:09.067Z,65.10
2019-05-15T01:32:39.521Z,65.40
2019-05-15T01:35:09.642Z,65.90
2019-05-15T01:37:39.162Z,65.90
2019-05-15T01:40:09.035Z,66.20
2019-05-15T01:42:38.889Z,66.00
2019-05-15T01:45:08.581Z,65.60
2019-05-15T01:47:38.973Z,65.30
2019-05-15T01:50:09.411Z,65.10
2019-05-15T01:52:39.080Z,65.30
2019-05-15T01:55:09.314Z,65.70
2019-05-15T01:57:38.355Z,66.20
2019-05-15T02:00:08.852Z,66.40
2019-05-15T02:02:38.917Z,66.40
2019-05-15T02:05:09.037Z,66.40
2019-05-15T02:07:38.985Z,67.50
2019-05-15T02:10:09.554Z,67.50
2019-05-15T02:12:39.011Z,67.80
2019-05-15T02:15:09.388Z,68.30
2019-05-15T02:17:39.271Z,68.60
2019-05-15T02:20:08.804Z,68.70
2019-05-15T02:22:41.900Z,69.40
2019-05-15T02:25:08.811Z,70.00
2019-05-15T02:27:39.326Z,70.00
2019-05-15T02:30:22.296Z,69.90
2019-05-15T02:32:39.887Z,69.60
2019-05-15T02:35:10.313Z,69.50
2019-05-15T02:37:40.998Z,69.50
2019-05-15T02:40:10.747Z,69.40
2019-05-15T02:42:40.360Z,69.70
2019-05-15T02:45:10.274Z,69.70
2019-05-15T02:47:39.910Z,69.00
2019-05-15T02:50:10.668Z,70.00
2019-05-15T02:52:44.515Z,70.40
2019-05-15T02:55:09.944Z,70.90
2019-05-15T02:57:39.621Z,71.20
2019-05-15T03:00:11.001Z,71.20
2019-05-15T03:02:41.209Z,71.10
2019-05-15T03:05:09.970Z,71.20
2019-05-15T03:07:40.183Z,71.90
2019-05-15T03:10:10.074Z,72.20
2019-05-15T03:12:40.708Z,72.40
2019-05-15T03:15:09.918Z,72.30
2019-05-15T03:17:40.695Z,72.40
2019-05-15T03:20:11.205Z,72.30
2019-05-15T03:22:40.633Z,72.40
2019-05-15T03:25:10.819Z,72.40
2019-05-15T03:27:40.098Z,73.50
2019-05-15T03:30:13.468Z,72.60
2019-05-15T03:32:50.614Z,72.80
2019-05-15T03:35:14.471Z,72.90
2019-05-15T03:37:40.206Z,72.80
2019-05-15T03:40:10.933Z,72.70
2019-05-15T03:42:39.963Z,72.60
2019-05-15T03:45:10.157Z,72.50
2019-05-15T03:47:40.067Z,72.10
2019-05-15T03:50:10.744Z,72.10
2019-05-15T03:52:39.863Z,72.10
2019-05-15T03:55:10.835Z,72.20
2019-05-15T03:57:40.852Z,72.50
2019-05-15T04:00:10.856Z,72.70
2019-05-15T04:02:39.918Z,72.60
2019-05-15T04:05:11.774Z,72.80
2019-05-15T04:07:40.037Z,73.00
2019-05-15T04:10:10.140Z,73.30
2019-05-15T04:12:40.483Z,73.70
2019-05-15T04:15:10.351Z,73.60
2019-05-15T04:17:40.552Z,73.90
2019-05-15T04:20:10.476Z,74.20
2019-05-15T04:22:40.178Z,74.40
2019-05-15T04:25:09.992Z,75.00
2019-05-15T04:27:40.768Z,74.40
2019-05-15T04:30:10.845Z,74.50
2019-05-15T04:32:40.372Z,74.70
2019-05-15T04:35:10.027Z,74.50
2019-05-15T04:37:40.694Z,74.30
2019-05-15T04:40:09.980Z,74.30
2019-05-15T04:42:39.821Z,74.30
2019-05-15T04:45:10.247Z,74.60
2019-05-15T04:47:39.798Z,74.40
2019-05-15T04:50:09.860Z,74.50
2019-05-15T04:52:42.427Z,74.50
2019-05-15T04:55:10.063Z,74.40
2019-05-15T04:57:40.514Z,74.40
2019-05-15T05:00:10.067Z,74.20
2019-05-15T05:02:39.841Z,74.30
2019-05-15T05:05:10.351Z,74.20
2019-05-15T05:07:39.435Z,74.20
2019-05-15T05:10:09.501Z,74.40
2019-05-15T05:12:41.568Z,74.20
2019-05-15T05:15:08.978Z,74.10
2019-05-15T05:17:39.080Z,74.00
2019-05-15T05:20:08.204Z,74.00
2019-05-15T05:22:39.325Z,74.60
2019-05-15T05:25:08.174Z,74.50
2019-05-15T05:27:38.281Z,74.30
2019-05-15T05:30:08.768Z,74.20
2019-05-15T05:32:38.915Z,74.00
2019-05-15T05:35:08.432Z,73.60
2019-05-15T05:37:38.869Z,73.40
2019-05-15T05:40:08.264Z,73.20
2019-05-15T05:42:38.985Z,73.10
2019-05-15T05:45:09.422Z,72.70
2019-05-15T05:47:38.465Z,72.80
2019-05-15T05:50:08.477Z,72.90
2019-05-15T05:52:38.994Z,72.10
2019-05-15T05:55:09.020Z,71.60
2019-05-15T05:57:38.202Z,70.80
2019-05-15T06:00:09.282Z,70.50
2019-05-15T06:02:46.825Z,70.00
2019-05-15T06:05:08.657Z,69.30
2019-05-15T06:07:38.777Z,69.40
2019-05-15T06:10:08.910Z,69.20
2019-05-15T06:12:38.863Z,68.70
2019-05-15T06:15:08.814Z,69.00
2019-05-15T06:17:39.279Z,68.20
2019-05-15T06:20:08.348Z,68.30
2019-05-15T06:22:38.658Z,67.20
2019-05-15T06:25:10.775Z,67.20
2019-05-15T06:27:39.125Z,68.10
2019-05-15T06:30:08.792Z,67.50
2019-05-15T06:32:39.956Z,66.10
2019-05-15T06:35:09.687Z,65.70
2019-05-15T06:37:39.706Z,65.50
2019-05-15T06:40:08.812Z,64.90
2019-05-15T06:42:39.321Z,64.00
2019-05-15T06:45:08.203Z,64.20
2019-05-15T06:47:39.218Z,63.90
2019-05-15T06:50:10.239Z,64.70
2019-05-15T06:52:38.684Z,63.70
2019-05-15T06:55:09.284Z,63.00
2019-05-15T06:57:39.660Z,63.90
2019-05-15T07:00:08.683Z,63.80
2019-05-15T07:02:38.247Z,63.30
2019-05-15T07:05:07.983Z,63.10
2019-05-15T07:07:38.689Z,62.10
2019-05-15T07:10:09.100Z,61.90
2019-05-15T07:12:39.079Z,62.30
2019-05-15T07:15:09.324Z,62.30
2019-05-15T07:17:39.299Z,62.20
2019-05-15T07:20:09.367Z,61.40
2019-05-15T07:22:39.181Z,61.70
2019-05-15T07:25:09.054Z,61.90
2019-05-15T07:27:39.104Z,62.00
2019-05-15T07:30:11.970Z,61.10
2019-05-15T07:32:40.026Z,60.70
2019-05-15T07:35:09.318Z,60.50
2019-05-15T07:37:38.768Z,60.90
2019-05-15T07:40:09.372Z,61.20
2019-05-15T07:42:38.635Z,60.70
2019-05-15T07:45:10.315Z,61.20
2019-05-15T07:47:38.987Z,61.10
2019-05-15T07:50:10.083Z,60.70
2019-05-15T07:52:40.136Z,59.80
2019-05-15T07:55:09.629Z,60.00
2019-05-15T07:57:39.509Z,59.80
2019-05-15T08:00:10.535Z,60.20
2019-05-15T08:02:39.189Z,60.10
2019-05-15T08:05:09.987Z,59.60
2019-05-15T08:07:39.205Z,59.20
2019-05-15T08:10:08.879Z,59.40
2019-05-15T08:12:39.134Z,58.80
2019-05-15T08:15:11.077Z,57.30
2019-05-15T08:17:58.572Z,56.70
2019-05-15T08:20:12.330Z,56.60
2019-05-15T08:22:40.957Z,57.20
2019-05-15T08:25:16.206Z,55.80
2019-05-15T08:27:41.501Z,55.40
2019-05-15T08:30:12.357Z,55.00
2019-05-15T08:32:40.996Z,56.00
2019-05-15T08:35:12.564Z,55.10
2019-05-15T08:37:40.429Z,54.40
2019-05-15T08:40:09.501Z,55.30
2019-05-15T08:42:41.545Z,54.40
2019-05-15T08:45:09.203Z,53.50
2019-05-15T08:47:38.661Z,54.60
2019-05-15T08:50:08.992Z,54.50
2019-05-15T08:52:39.437Z,53.70
2019-05-15T08:55:08.894Z,53.70
2019-05-15T08:57:38.402Z,53.10
2019-05-15T09:00:09.889Z,52.80
2019-05-15T09:02:38.782Z,50.30
2019-05-15T09:05:08.891Z,52.60
2019-05-15T09:07:38.686Z,51.30
2019-05-15T09:10:10.697Z,50.70
2019-05-15T09:12:39.382Z,51.50
2019-05-15T09:15:09.600Z,52.10
2019-05-15T09:17:39.841Z,51.30
2019-05-15T09:20:11.926Z,50.30
2019-05-15T09:22:40.502Z,50.10
2019-05-15T09:25:11.862Z,50.90
2019-05-15T09:27:40.331Z,50.60
2019-05-15T09:30:10.128Z,50.50
2019-05-15T09:32:39.231Z,51.20
2019-05-15T09:35:09.195Z,51.50
2019-05-15T09:37:38.763Z,51.10
2019-05-15T09:40:09.044Z,51.60
2019-05-15T09:42:38.593Z,51.30
2019-05-15T09:45:09.497Z,51.30
2019-05-15T09:47:39.656Z,50.60
2019-05-15T09:50:10.168Z,51.10
2019-05-15T09:52:39.348Z,49.40
2019-05-15T09:55:09.649Z,49.40
2019-05-15T09:57:38.934Z,49.10
2019-05-15T10:00:10.135Z,48.00
2019-05-15T10:02:39.618Z,49.20
2019-05-15T10:05:11.129Z,49.70
2019-05-15T10:07:40.492Z,50.00
2019-05-15T10:10:10.284Z,49.60
2019-05-15T10:12:38.939Z,49.10
2019-05-15T10:15:11.329Z,48.30
2019-05-15T10:17:39.500Z,48.00
2019-05-15T10:20:10.000Z,48.60
2019-05-15T10:22:38.472Z,49.20
2019-05-15T10:25:10.825Z,49.80
2019-05-15T10:27:39.934Z,49.40
2019-05-15T10:30:09.616Z,49.20
2019-05-15T10:32:39.670Z,48.40
2019-05-15T10:35:24.483Z,48.60
2019-05-15T10:37:40.035Z,48.50
2019-05-15T10:40:10.199Z,48.30
2019-05-15T10:42:39.770Z,48.40
2019-05-15T10:45:09.656Z,48.00
2019-05-15T10:47:38.916Z,47.70
2019-05-15T10:50:09.245Z,47.00
2019-05-15T10:52:38.255Z,46.80
2019-05-15T10:55:09.194Z,46.30
2019-05-15T10:57:43.462Z,46.30
2019-05-15T11:00:09.768Z,47.40
2019-05-15T11:02:39.329Z,46.60
2019-05-15T11:05:10.214Z,48.10
2019-05-15T11:07:39.408Z,47.20
2019-05-15T11:10:09.080Z,45.80
2019-05-15T11:12:38.053Z,45.00
2019-05-15T11:15:11.415Z,44.80
2019-05-15T11:17:39.435Z,45.30
2019-05-15T11:20:08.591Z,44.90
2019-05-15T11:22:42.205Z,45.60
2019-05-15T11:25:09.954Z,46.30
2019-05-15T11:27:39.230Z,45.50
2019-05-15T11:30:09.746Z,46.40
2019-05-15T11:32:39.101Z,47.00
2019-05-15T11:35:08.607Z,46.00
2019-05-15T11:37:44.171Z,46.80
2019-05-15T11:40:10.354Z,45.00
2019-05-15T11:42:39.612Z,45.40
2019-05-15T11:45:09.277Z,45.10
2019-05-15T11:47:39.586Z,45.80
2019-05-15T11:50:09.687Z,45.60
2019-05-15T11:52:40.438Z,44.90
2019-05-15T11:55:08.920Z,45.90
2019-05-15T11:57:46.045Z,44.70
2019-05-15T12:00:14.905Z,44.60
2019-05-15T12:02:39.106Z,44.60
2019-05-15T12:05:09.261Z,44.10
2019-05-15T12:07:38.404Z,46.30
2019-05-15T12:10:10.376Z,46.30
2019-05-15T12:12:38.829Z,44.70
2019-05-15T12:15:08.113Z,44.30
2019-05-15T12:17:39.054Z,42.50
2019-05-15T12:20:10.787Z,43.60
2019-05-15T12:22:39.151Z,44.00
2019-05-15T12:27:40.517Z,43.10
2019-05-15T12:30:13.486Z,42.70
2019-05-15T12:32:42.000Z,42.10
2019-05-15T12:35:11.268Z,42.10
2019-05-15T12:37:40.221Z,43.00
2019-05-15T13:00:13.018Z,42.60
2019-05-15T13:02:41.432Z,42.50
2019-05-15T13:05:10.637Z,42.70
2019-05-15T13:07:39.126Z,43.00
2019-05-15T13:10:08.822Z,42.90
2019-05-15T13:12:47.690Z,42.80
2019-05-15T13:15:08.437Z,42.70
2019-05-15T13:17:38.883Z,42.80
2019-05-15T13:20:07.777Z,42.20
2019-05-15T13:22:38.724Z,42.30
2019-05-15T13:25:08.617Z,41.70
2019-05-15T13:27:38.235Z,41.30
2019-05-15T13:30:10.747Z,41.30
2019-05-15T13:32:40.974Z,40.30
2019-05-15T13:35:10.317Z,40.90
2019-05-15T13:37:39.259Z,40.70
2019-05-15T13:40:08.575Z,40.70
2019-05-15T13:42:39.041Z,40.70
2019-05-15T13:45:12.723Z,41.30
2019-05-15T13:47:39.571Z,40.70
2019-05-15T13:50:08.360Z,41.10
2019-05-15T13:52:39.391Z,41.20
2019-05-15T13:55:08.458Z,41.60
2019-05-15T13:57:38.262Z,42.00
2019-05-15T14:00:09.577Z,42.30
2019-05-15T14:02:38.581Z,41.20
2019-05-15T14:05:09.768Z,40.60
2019-05-15T14:07:48.783Z,41.70
2019-05-15T14:10:09.532Z,41.50
2019-05-15T14:12:38.602Z,41.70
2019-05-15T14:15:09.090Z,42.80
2019-05-15T14:17:38.123Z,42.60
2019-05-15T14:20:09.050Z,42.50
2019-05-15T14:22:39.039Z,42.70
2019-05-15T14:25:09.641Z,42.60
2019-05-15T14:27:39.859Z,41.80
2019-05-15T14:30:09.634Z,42.60
2019-05-15T14:32:39.429Z,42.20
2019-05-15T14:35:09.937Z,42.00
2019-05-15T14:37:38.466Z,42.90
2019-05-15T14:40:09.005Z,44.40
2019-05-15T14:42:39.515Z,42.10
2019-05-15T14:45:10.060Z,41.70
2019-05-15T14:47:39.724Z,41.90
2019-05-15T14:50:09.977Z,41.80
2019-05-15T14:52:39.020Z,40.70
2019-05-15T14:55:08.147Z,41.50
2019-05-15T14:57:39.167Z,42.60
2019-05-15T15:00:08.802Z,43.10
2019-05-15T15:02:39.077Z,43.10
2019-05-15T15:05:09.191Z,43.40
2019-05-15T15:07:38.534Z,42.60
2019-05-15T15:10:08.286Z,43.10
2019-05-15T15:12:39.764Z,42.50
2019-05-15T15:15:09.679Z,42.70
2019-05-15T15:17:39.037Z,42.80
2019-05-15T15:20:08.908Z,43.00
2019-05-15T15:22:39.427Z,42.80
2019-05-15T15:25:09.486Z,41.90
2019-05-15T15:27:39.246Z,42.20
2019-05-15T15:30:09.321Z,42.50
2019-05-15T15:32:38.905Z,42.70
2019-05-15T15:35:09.042Z,43.40
2019-05-15T15:37:38.537Z,42.90
2019-05-15T15:40:08.552Z,43.10
2019-05-15T15:42:39.485Z,43.70
2019-05-15T15:45:09.374Z,43.80
2019-05-15T15:47:38.921Z,43.80
2019-05-15T15:50:09.453Z,44.20
2019-05-15T15:52:38.828Z,44.40
2019-05-15T15:55:08.980Z,45.10
2019-05-15T15:57:39.790Z,45.10
2019-05-15T16:00:10.759Z,44.90
2019-05-15T16:02:40.979Z,45.10
2019-05-15T16:05:10.255Z,45.20
2019-05-15T16:07:38.901Z,45.40
2019-05-15T16:10:08.317Z,45.10
2019-05-15T16:12:38.837Z,44.90
2019-05-15T16:15:09.094Z,44.80
2019-05-15T16:17:38.517Z,44.70
2019-05-15T16:20:09.121Z,45.00
2019-05-15T16:22:38.301Z,45.90
2019-05-15T16:25:11.424Z,44.60
2019-05-15T16:27:39.834Z,44.60
2019-05-15T16:30:11.635Z,45.00
2019-05-15T16:32:40.729Z,45.60
2019-05-15T16:35:10.255Z,45.30
2019-05-15T16:37:39.266Z,45.70
2019-05-15T16:40:08.841Z,45.90
2019-05-15T16:42:38.593Z,46.00
2019-05-15T16:45:09.547Z,45.90
2019-05-15T16:47:38.894Z,46.30
2019-05-15T16:50:09.220Z,46.70
2019-05-15T16:52:38.889Z,47.20
2019-05-15T16:55:09.641Z,47.30
2019-05-15T16:57:39.063Z,47.10
2019-05-15T17:00:09.473Z,47.00
2019-05-15T17:02:39.293Z,47.20
2019-05-15T17:05:09.086Z,47.00
2019-05-15T17:07:38.825Z,47.00
2019-05-15T17:10:08.672Z,46.60
2019-05-15T17:12:38.611Z,46.30
2019-05-15T17:15:09.369Z,46.50
2019-05-15T17:17:38.724Z,46.80
2019-05-15T17:20:10.044Z,46.80
2019-05-15T17:22:38.794Z,46.20
2019-05-15T17:25:09.314Z,45.00
2019-05-15T17:27:37.941Z,45.00
2019-05-15T17:30:09.478Z,45.00
2019-05-15T17:32:39.512Z,45.00
2019-05-15T17:35:10.126Z,45.00
2019-05-15T17:37:39.902Z,45.00
2019-05-15T17:40:09.457Z,44.60
2019-05-15T17:42:38.811Z,44.20
2019-05-15T17:45:09.304Z,43.60
2019-05-15T17:47:38.834Z,44.10
2019-05-15T17:50:08.712Z,44.60
2019-05-15T17:52:38.791Z,45.00
2019-05-15T17:55:07.882Z,44.50
2019-05-15T17:57:38.793Z,43.50
2019-05-15T18:00:12.780Z,42.80
2019-05-15T18:02:41.571Z,42.30
2019-05-15T18:05:10.643Z,42.70
2019-05-15T18:07:39.292Z,42.70
2019-05-15T18:10:08.689Z,42.70
2019-05-15T18:12:38.838Z,42.80
2019-05-15T18:15:09.046Z,42.90
2019-05-15T18:17:39.134Z,42.60
2019-05-15T18:20:09.890Z,43.30
2019-05-15T18:22:39.091Z,43.40
2019-05-15T18:25:09.123Z,43.50
2019-05-15T18:27:38.859Z,43.80
2019-05-15T18:30:09.205Z,43.90
2019-05-15T18:32:39.091Z,43.50
2019-05-15T18:35:08.811Z,44.20
2019-05-15T18:37:39.400Z,44.00
2019-05-15T18:40:09.962Z,44.10
2019-05-15T18:42:39.582Z,44.00
2019-05-15T18:45:08.964Z,44.30
2019-05-15T18:47:38.940Z,43.90
2019-05-15T18:50:12.655Z,44.00
2019-05-15T18:52:38.702Z,44.30
2019-05-15T18:55:08.987Z,44.80
2019-05-15T18:57:38.618Z,44.90
2019-05-15T19:00:09.470Z,45.50
2019-05-15T19:02:39.309Z,45.40
2019-05-15T19:05:09.007Z,46.00
2019-05-15T19:07:38.395Z,46.10
2019-05-15T19:10:09.818Z,45.80
2019-05-15T19:12:38.251Z,45.80
2019-05-15T19:15:09.296Z,45.90
2019-05-15T19:17:38.857Z,46.20
2019-05-15T19:20:08.570Z,46.10
2019-05-15T19:22:40.559Z,45.80
2019-05-15T19:25:08.927Z,46.00
2019-05-15T19:27:39.146Z,45.90
2019-05-15T19:30:09.228Z,45.90
2019-05-15T19:32:38.824Z,45.90
2019-05-15T19:35:09.711Z,45.90
2019-05-15T19:37:38.758Z,46.50
2019-05-15T19:40:09.271Z,46.60
2019-05-15T19:42:38.556Z,46.50
2019-05-15T19:45:08.898Z,46.10
2019-05-15T19:47:38.706Z,46.30
2019-05-15T19:50:08.582Z,46.30
2019-05-15T19:52:37.387Z,46.60
2019-05-15T19:55:08.721Z,46.20
2019-05-15T19:57:38.698Z,46.30
2019-05-15T20:00:09.001Z,46.00
2019-05-15T20:02:38.072Z,46.50
2019-05-15T20:05:09.203Z,47.00
2019-05-15T20:07:38.983Z,47.00
2019-05-15T20:10:09.939Z,46.60
2019-05-15T20:12:39.279Z,46.50
2019-05-15T20:15:09.287Z,46.80
2019-05-15T20:17:38.834Z,47.40
2019-05-15T20:20:09.121Z,47.30
2019-05-15T20:22:40.195Z,47.50
2019-05-15T20:25:09.049Z,47.90
2019-05-15T20:27:39.228Z,48.20
2019-05-15T20:30:08.860Z,47.80
2019-05-15T20:32:38.655Z,47.70
2019-05-15T20:35:08.588Z,47.90
2019-05-15T20:37:39.069Z,47.90
2019-05-15T20:40:09.220Z,47.80
2019-05-15T20:42:38.318Z,47.80
2019-05-15T20:45:11.275Z,48.30
2019-05-15T20:47:38.801Z,48.90
2019-05-15T20:50:09.097Z,48.40
2019-05-15T20:52:39.307Z,49.00
2019-05-15T20:55:08.679Z,49.20
2019-05-15T20:57:40.540Z,49.60
2019-05-15T21:00:10.912Z,50.20
2019-05-15T21:02:39.826Z,50.00
2019-05-15T21:05:09.051Z,50.00
2019-05-15T21:07:40.074Z,49.60
2019-05-15T21:10:09.052Z,50.20
2019-05-15T21:12:41.127Z,50.80
2019-05-15T21:15:09.963Z,50.80
2019-05-15T21:17:39.980Z,51.30
2019-05-15T21:20:09.740Z,51.70
2019-05-15T21:22:40.278Z,51.50
2019-05-15T21:25:10.738Z,51.70
2019-05-15T21:27:42.301Z,51.90
2019-05-15T21:30:11.408Z,52.30
2019-05-15T21:32:40.037Z,52.60
2019-05-15T21:35:09.574Z,52.40
2019-05-15T21:37:38.958Z,52.90
2019-05-15T21:40:08.736Z,53.40
2019-05-15T21:42:39.044Z,53.10
2019-05-15T21:45:14.336Z,53.00
2019-05-15T21:47:39.099Z,53.70
2019-05-15T21:50:08.582Z,54.70
2019-05-15T21:52:38.993Z,54.60
2019-05-15T21:55:09.666Z,54.70
2019-05-15T21:57:40.076Z,54.70
2019-05-15T22:00:11.835Z,54.60
2019-05-15T22:02:40.761Z,54.70
2019-05-15T22:05:09.427Z,54.20
2019-05-15T22:07:38.859Z,53.90
2019-05-15T22:10:10.573Z,53.90
2019-05-15T22:12:39.657Z,54.10
2019-05-15T22:15:09.160Z,54.60
2019-05-15T22:17:38.612Z,54.70
2019-05-15T22:20:08.918Z,54.90
2019-05-15T22:22:37.527Z,54.90
2019-05-15T22:25:10.818Z,55.20
2019-05-15T22:27:38.246Z,55.40
2019-05-15T22:30:08.212Z,55.60
2019-05-15T22:32:41.258Z,55.70
2019-05-15T22:35:14.003Z,56.00
2019-05-15T22:37:41.581Z,56.30
2019-05-15T22:40:10.991Z,56.70
2019-05-15T22:42:39.868Z,57.10
2019-05-15T22:45:11.609Z,57.30
2019-05-15T22:47:39.307Z,57.40
2019-05-15T22:50:08.545Z,57.70
2019-05-15T22:52:38.797Z,57.80
2019-05-15T22:55:08.007Z,57.70
2019-05-15T22:57:38.673Z,58.10
2019-05-15T23:00:08.672Z,58.30
2019-05-15T23:02:37.379Z,58.60
2019-05-15T23:05:19.781Z,58.60
2019-05-15T23:07:38.993Z,58.90
2019-05-15T23:10:09.093Z,59.50
2019-05-15T23:12:38.221Z,59.30
2019-05-15T23:15:08.676Z,59.30
2019-05-15T23:17:38.374Z,59.60
2019-05-15T23:20:08.778Z,59.30
2019-05-15T23:22:38.556Z,59.60
2019-05-15T23:25:07.910Z,59.50
2019-05-15T23:27:38.151Z,59.80
2019-05-15T23:30:08.930Z,60.30
2019-05-15T23:32:39.109Z,60.60
2019-05-15T23:35:07.713Z,60.60
2019-05-15T23:37:39.071Z,61.30
2019-05-15T23:40:08.806Z,61.00
2019-05-15T23:42:39.059Z,61.10
2019-05-15T23:45:08.103Z,61.50
2019-05-15T23:47:38.373Z,60.90
2019-05-15T23:50:06.828Z,61.20
2019-05-15T23:52:35.279Z,61.20
2019-05-15T23:55:08.298Z,61.70
2019-05-15T23:57:38.701Z,61.70
